Time;durP1;ratioP1;P1;durP2;ratioP2;P2;SDS_P1;SDS_P2;PMS_P1;PMS_P2;Temp;Humidity;BMP_temperature;BMP_pressure;BME280_temperature;BME280_humidity;BME280_pressure;Samples;Min_cycle;Max_cycle;Signal;HPM_P1;HPM_P2
2022/04/13 00:00:41;;;;;;;6.50;3.35;;;;;;;8.67;40.16;94060.88;4929740;28;20043;-74
2022/04/13 00:03:06;;;;;;;3.70;2.72;;;;;;;8.49;40.15;94052.72;4924299;28;20406;-74
2022/04/13 00:05:32;;;;;;;4.78;2.50;;;;;;;8.48;40.51;94063.59;4942580;28;20275;-74
2022/04/13 00:07:58;;;;;;;6.40;3.13;;;;;;;8.47;40.55;94062.81;4930726;28;20166;-74
2022/04/13 00:10:23;;;;;;;4.38;3.00;;;;;;;8.59;40.34;94060.50;4930281;28;20406;-75
2022/04/13 00:12:49;;;;;;;4.97;3.42;;;;;;;8.45;39.96;94035.84;4946993;28;20082;-75
2022/04/13 00:15:14;;;;;;;5.85;3.40;;;;;;;8.45;40.37;94038.50;4923344;28;20056;-74
2022/04/13 00:17:39;;;;;;;5.22;3.28;;;;;;;8.46;40.20;94037.38;4926609;28;20090;-74
2022/04/13 00:20:06;;;;;;;5.78;2.90;;;;;;;8.63;40.42;94050.06;4934991;28;20495;-74
2022/04/13 00:22:32;;;;;;;7.03;3.10;;;;;;;8.51;40.39;94041.84;4942274;28;20410;-74
2022/04/13 00:24:57;;;;;;;4.03;3.03;;;;;;;8.39;40.47;94038.88;4929906;29;20051;-75
2022/04/13 00:27:22;;;;;;;5.35;3.03;;;;;;;8.58;40.30;94058.91;4937886;28;20988;-75
2022/04/13 00:29:48;;;;;;;5.10;3.08;;;;;;;8.34;40.34;94028.34;4929528;28;20474;-74
2022/04/13 00:32:17;;;;;;;5.32;2.80;;;;;;;8.39;40.45;94060.84;4925438;28;20043;-74
2022/04/13 00:34:43;;;;;;;5.32;3.25;;;;;;;8.34;40.55;94047.69;4933978;28;20062;-75
2022/04/13 00:37:09;;;;;;;6.45;3.40;;;;;;;8.43;40.44;94050.44;4931880;29;20051;-74
2022/04/13 00:39:34;;;;;;;4.30;3.20;;;;;;;8.36;40.43;94034.94;4920755;28;20966;-74
2022/04/13 00:42:03;;;;;;;8.27;3.25;;;;;;;8.43;40.26;94045.16;4926127;28;20082;-74
2022/04/13 00:44:29;;;;;;;4.28;3.13;;;;;;;8.47;40.55;94057.53;4927443;28;20071;-75
2022/04/13 00:46:56;;;;;;;5.45;3.70;;;;;;;8.34;40.47;94037.09;4927845;28;20058;-74
2022/04/13 00:49:23;;;;;;;10.50;4.18;;;;;;;8.38;40.81;94064.59;4927894;29;20024;-75
2022/04/13 00:51:50;;;;;;;8.95;5.22;;;;;;;8.24;40.58;94034.63;4922579;28;20031;-75
2022/04/13 00:54:18;;;;;;;8.50;4.00;;;;;;;8.31;40.90;94066.84;4944459;28;20398;-75
2022/04/13 00:56:47;;;;;;;5.13;3.42;;;;;;;8.24;40.90;94053.19;4926433;28;20056;-74
2022/04/13 00:59:14;;;;;;;6.78;4.05;;;;;;;8.28;41.08;94059.47;4927155;28;20039;-74
2022/04/13 01:01:47;;;;;;;7.50;3.83;;;;;;;8.18;41.02;94066.78;4928121;28;20027;-73
2022/04/13 01:04:13;;;;;;;8.63;5.13;;;;;;;8.15;40.99;94066.31;4940874;28;20505;-74
2022/04/13 01:06:40;;;;;;;6.75;4.85;;;;;;;8.07;41.35;94066.22;4924335;28;20875;-73
2022/04/13 01:09:06;;;;;;;7.80;4.70;;;;;;;8.02;41.19;94055.69;4930282;28;20045;-73
2022/04/13 01:11:32;;;;;;;10.25;4.28;;;;;;;7.84;41.30;94041.41;4921358;28;20047;-73
2022/04/13 01:13:58;;;;;;;8.50;4.70;;;;;;;7.87;41.44;94053.28;4925193;28;20145;-75
2022/04/13 01:16:24;;;;;;;10.77;5.00;;;;;;;7.82;41.68;94067.41;4926548;29;20043;-75
2022/04/13 01:18:51;;;;;;;4.80;3.55;;;;;;;7.64;41.95;94058.38;4925432;28;20050;-72
2022/04/13 01:21:19;;;;;;;7.07;3.85;;;;;;;7.74;42.20;94062.75;4927866;28;20044;-75
2022/04/13 01:23:45;;;;;;;8.13;3.45;;;;;;;7.75;42.17;94066.19;4921689;28;20697;-75
2022/04/13 01:26:13;;;;;;;3.58;2.67;;;;;;;7.68;42.15;94069.16;4931172;28;20055;-73
2022/04/13 01:28:38;;;;;;;5.22;3.53;;;;;;;7.67;42.36;94052.50;4926766;28;20034;-72
2022/04/13 01:31:04;;;;;;;6.00;3.28;;;;;;;7.71;41.98;94064.09;4922583;28;20031;-72
2022/04/13 01:33:30;;;;;;;5.25;3.65;;;;;;;7.78;41.84;94065.63;4932248;28;20035;-73
2022/04/13 01:36:00;;;;;;;7.70;3.70;;;;;;;7.66;41.90;94063.38;4921112;28;20073;-73
2022/04/13 01:38:30;;;;;;;4.10;2.65;;;;;;;7.65;42.18;94065.25;4924732;28;20118;-73
2022/04/13 01:40:56;;;;;;;4.38;3.38;;;;;;;7.46;41.98;94043.28;4927042;28;20040;-72
2022/04/13 01:43:23;;;;;;;5.03;3.42;;;;;;;7.68;42.07;94066.50;4927411;28;20225;-74
2022/04/13 01:45:50;;;;;;;4.93;3.72;;;;;;;7.56;42.21;94066.19;4940137;28;20031;-72
2022/04/13 01:48:16;;;;;;;7.50;3.97;;;;;;;7.55;42.12;94052.16;4932996;28;20082;-75
2022/04/13 01:50:42;;;;;;;8.68;3.45;;;;;;;7.44;42.00;94031.41;4929870;28;20024;-73
2022/04/13 01:53:07;;;;;;;4.53;3.40;;;;;;;7.59;41.95;94068.25;4917952;28;21126;-75
2022/04/13 01:55:33;;;;;;;6.47;3.60;;;;;;;7.60;41.96;94059.22;4920495;28;20062;-73
2022/04/13 01:57:58;;;;;;;5.03;3.25;;;;;;;7.52;42.03;94047.44;4925784;29;20530;-73
2022/04/13 02:00:23;;;;;;;9.65;3.70;;;;;;;7.43;41.86;94053.69;4927702;29;20122;-75
2022/04/13 02:02:49;;;;;;;8.30;4.93;;;;;;;6.81;42.73;94043.13;4924882;28;20050;-72
2022/04/13 02:05:15;;;;;;;10.23;4.65;;;;;;;6.86;42.88;94050.19;4928198;28;20103;-73
2022/04/13 02:07:41;;;;;;;6.38;3.47;;;;;;;6.82;43.64;94059.78;4927222;28;20031;-72
2022/04/13 02:10:09;;;;;;;4.43;2.88;;;;;;;6.89;43.26;94044.38;4918994;28;20074;-75
2022/04/13 02:12:34;;;;;;;7.57;3.80;;;;;;;6.97;43.45;94051.66;4923751;28;20032;-72
2022/04/13 02:15:00;;;;;;;6.03;3.47;;;;;;;7.02;43.21;94064.00;4923126;28;20383;-75
2022/04/13 02:17:25;;;;;;;4.50;3.53;;;;;;;6.69;43.27;93999.69;4926284;28;20086;-75
2022/04/13 02:19:51;;;;;;;10.35;5.15;;;;;;;6.91;43.14;94044.84;4926272;28;20149;-75
2022/04/13 02:22:16;;;;;;;7.22;3.30;;;;;;;7.03;43.23;94055.03;4926127;28;20081;-75
2022/04/13 02:24:41;;;;;;;4.82;3.17;;;;;;;7.01;43.28;94049.22;4917216;28;20815;-74
2022/04/13 02:27:09;;;;;;;5.75;3.67;;;;;;;7.03;43.26;94050.53;4926396;28;20101;-74
2022/04/13 02:29:34;;;;;;;5.75;3.22;;;;;;;7.04;43.12;94046.03;4928530;28;20332;-74
2022/04/13 02:32:01;;;;;;;4.28;3.15;;;;;;;6.96;43.10;94034.22;4923528;28;20036;-75
2022/04/13 02:34:26;;;;;;;7.57;3.45;;;;;;;6.83;42.94;94013.75;4922561;29;20019;-74
2022/04/13 02:36:51;;;;;;;3.20;2.45;;;;;;;7.01;43.12;94054.50;4928773;28;20035;-74
2022/04/13 02:39:17;;;;;;;5.00;3.15;;;;;;;6.85;43.34;94038.84;4917771;28;20135;-75
2022/04/13 02:41:42;;;;;;;5.22;3.38;;;;;;;6.83;43.38;94030.41;4930381;28;20502;-74
2022/04/13 02:44:08;;;;;;;5.93;3.38;;;;;;;6.91;43.31;94042.19;4922643;28;20649;-74
2022/04/13 02:46:33;;;;;;;6.18;3.42;;;;;;;7.03;43.06;94049.72;4927718;28;20489;-74
2022/04/13 02:48:59;;;;;;;4.30;2.60;;;;;;;6.95;42.90;94026.53;4928273;28;20032;-74
2022/04/13 02:51:24;;;;;;;7.10;3.10;;;;;;;7.13;42.98;94044.31;4917986;28;20039;-74
2022/04/13 02:53:49;;;;;;;5.95;3.50;;;;;;;7.07;42.71;94034.88;4928582;28;20708;-74
2022/04/13 02:56:15;;;;;;;3.30;2.20;;;;;;;7.22;42.78;94045.25;4922508;28;20524;-75
2022/04/13 02:58:40;;;;;;;5.90;3.42;;;;;;;7.23;42.76;94049.47;4934481;28;20023;-74
2022/04/13 03:01:06;;;;;;;4.70;2.97;;;;;;;7.20;42.71;94042.88;4931940;29;20023;-74
2022/04/13 03:03:32;;;;;;;4.78;3.35;;;;;;;7.10;42.91;94048.28;4923252;28;20228;-74
2022/04/13 03:05:57;;;;;;;3.88;2.92;;;;;;;7.05;42.76;94042.28;4929595;28;20043;-74
2022/04/13 03:08:23;;;;;;;4.25;2.33;;;;;;;7.10;42.88;94058.09;4925724;28;20046;-75
2022/04/13 03:10:48;;;;;;;4.15;3.13;;;;;;;7.08;42.90;94053.09;4929193;28;20047;-75
2022/04/13 03:13:14;;;;;;;7.15;3.25;;;;;;;6.91;42.94;94038.75;4927116;29;20569;-75
2022/04/13 03:15:39;;;;;;;5.10;3.45;;;;;;;7.02;43.00;94069.31;4926782;28;20498;-74
2022/04/13 03:18:05;;;;;;;7.07;3.10;;;;;;;6.98;43.05;94063.03;4929246;28;20047;-75
2022/04/13 03:20:32;;;;;;;5.20;3.20;;;;;;;6.61;42.98;94009.00;4929316;28;20044;-74
2022/04/13 03:22:57;;;;;;;5.18;3.55;;;;;;;6.93;43.21;94063.09;4921637;28;20047;-72
2022/04/13 03:25:23;;;;;;;3.80;2.72;;;;;;;7.06;42.86;94070.31;4928060;28;20055;-74
2022/04/13 03:27:48;;;;;;;4.38;3.13;;;;;;;6.93;42.75;94053.28;4928488;28;20596;-73
2022/04/13 03:30:16;;;;;;;4.38;3.38;;;;;;;6.94;42.58;94038.22;4928051;28;20110;-74
2022/04/13 03:32:42;;;;;;;5.30;3.15;;;;;;;7.16;42.34;94064.88;4928097;28;20293;-74
2022/04/13 03:35:10;;;;;;;3.65;2.25;;;;;;;7.04;42.44;94043.38;4931164;28;20031;-75
2022/04/13 03:37:36;;;;;;;5.30;3.30;;;;;;;7.08;42.89;94062.88;4928445;28;20045;-74
2022/04/13 03:40:02;;;;;;;5.90;3.75;;;;;;;7.13;42.63;94060.19;4935015;28;20505;-74
2022/04/13 03:42:33;;;;;;;4.20;3.00;;;;;;;6.98;42.78;94032.06;4927139;28;20044;-74
2022/04/13 03:45:02;;;;;;;5.53;3.88;;;;;;;7.03;42.94;94063.75;4933136;28;20118;-75
2022/04/13 03:47:27;;;;;;;5.03;3.13;;;;;;;7.02;42.78;94069.31;4943969;28;20039;-73
2022/04/13 03:49:52;;;;;;;4.50;2.90;;;;;;;6.98;42.86;94069.09;4930461;28;20039;-74
2022/04/13 03:52:18;;;;;;;5.70;3.85;;;;;;;7.03;42.88;94076.19;4920063;28;20188;-74
2022/04/13 03:54:43;;;;;;;8.35;4.03;;;;;;;6.80;42.96;94041.53;4936933;28;20058;-74
2022/04/13 03:57:08;;;;;;;7.25;4.28;;;;;;;7.06;42.80;94071.09;4917417;28;20050;-74
2022/04/13 03:59:34;;;;;;;4.18;2.83;;;;;;;7.04;43.18;94069.81;4928688;28;20126;-75
2022/04/13 04:01:59;;;;;;;5.75;4.07;;;;;;;6.82;43.11;94034.13;4923192;28;20098;-74
2022/04/13 04:04:24;;;;;;;10.63;4.43;;;;;;;6.93;42.90;94044.56;4950904;28;20485;-75
2022/04/13 04:06:50;;;;;;;8.55;4.95;;;;;;;6.87;43.64;94067.63;4923414;28;20035;-75
2022/04/13 04:09:15;;;;;;;8.15;4.53;;;;;;;6.99;42.98;94061.94;4927182;28;20445;-75
2022/04/13 04:11:40;;;;;;;9.30;4.45;;;;;;;7.01;43.02;94079.09;4926310;28;20043;-74
2022/04/13 04:14:06;;;;;;;12.57;5.35;;;;;;;6.89;43.01;94068.16;4934650;28;20063;-75
2022/04/13 04:16:31;;;;;;;8.07;4.72;;;;;;;7.03;43.17;94097.34;4943612;28;20038;-75
2022/04/13 04:18:57;;;;;;;10.05;4.68;;;;;;;7.03;43.48;94102.63;4931302;28;20040;-74
2022/04/13 04:21:23;;;;;;;7.50;5.75;;;;;;;7.11;43.45;94105.41;4925596;28;20042;-74
2022/04/13 04:23:48;;;;;;;10.77;6.22;;;;;;;7.15;43.22;94106.41;4922843;28;20545;-74
2022/04/13 04:26:13;;;;;;;16.20;5.80;;;;;;;7.30;43.10;94118.66;4932635;28;20097;-74
2022/04/13 04:28:39;;;;;;;7.75;4.90;;;;;;;7.36;43.10;94125.47;4922577;28;20086;-76
2022/04/13 04:31:05;;;;;;;10.48;4.63;;;;;;;7.45;42.91;94118.47;4933562;28;20097;-75
2022/04/13 04:33:30;;;;;;;9.65;5.47;;;;;;;7.48;42.76;94125.06;4926947;28;20514;-74
2022/04/13 04:35:56;;;;;;;7.47;5.40;;;;;;;7.54;42.49;94124.69;4925996;28;20050;-74
2022/04/13 04:38:21;;;;;;;9.52;5.65;;;;;;;7.56;42.31;94101.38;4930839;28;20588;-74
2022/04/13 04:40:46;;;;;;;8.05;6.55;;;;;;;7.61;42.35;94103.16;4920894;28;20674;-74
2022/04/13 04:43:12;;;;;;;8.38;5.75;;;;;;;7.74;42.20;94123.63;4926519;29;20510;-74
2022/04/13 04:45:43;;;;;;;12.45;6.07;;;;;;;8.01;41.89;94130.94;4941768;28;20051;-74
2022/04/13 04:48:08;;;;;;;9.43;5.72;;;;;;;7.65;41.30;94120.84;4930854;28;20043;-74
2022/04/13 04:50:34;;;;;;;10.55;6.35;;;;;;;7.88;41.02;94140.38;4930067;28;20445;-75
2022/04/13 04:53:00;;;;;;;12.32;7.53;;;;;;;8.18;40.71;94149.72;4926974;28;20050;-74
2022/04/13 04:55:25;;;;;;;8.98;6.13;;;;;;;7.88;40.83;94135.06;4925346;29;20562;-75
2022/04/13 04:57:51;;;;;;;12.02;6.93;;;;;;;8.21;40.82;94154.47;4932248;28;20039;-74
2022/04/13 05:00:19;;;;;;;10.65;7.78;;;;;;;8.32;40.75;94161.16;4933226;29;20054;-75
2022/04/13 05:02:47;;;;;;;9.32;6.10;;;;;;;8.40;40.21;94168.44;4928220;28;20039;-75
2022/04/13 05:05:13;;;;;;;12.63;7.25;;;;;;;7.98;41.24;94165.91;4924783;28;20027;-74
2022/04/13 05:07:39;;;;;;;16.42;7.03;;;;;;;7.90;41.45;94167.38;4929773;28;20112;-75
2022/04/13 05:10:06;;;;;;;20.85;6.50;;;;;;;8.02;40.88;94149.16;4923981;28;21266;-74
2022/04/13 05:12:41;;;;;;;10.15;6.82;;;;;;;8.03;40.91;94169.28;4930027;28;20047;-74
2022/04/13 05:15:07;;;;;;;16.13;7.10;;;;;;;8.39;40.84;94166.88;4924162;28;20036;-75
2022/04/13 05:17:32;;;;;;;10.63;6.05;;;;;;;8.23;40.94;94175.34;4932743;28;20067;-74
2022/04/13 05:19:57;;;;;;;8.63;4.95;;;;;;;8.48;39.75;94154.53;4929388;28;20478;-75
2022/04/13 05:22:23;;;;;;;10.68;5.40;;;;;;;8.40;39.26;94147.25;4933277;29;20035;-75
2022/04/13 05:24:49;;;;;;;9.68;5.95;;;;;;;8.25;39.67;94126.28;4925836;28;20396;-74
2022/04/13 05:27:15;;;;;;;10.40;6.55;;;;;;;8.65;39.98;94171.75;4928500;28;20468;-74
2022/04/13 05:29:40;;;;;;;10.00;6.30;;;;;;;8.42;39.37;94134.47;4931660;28;20139;-74
2022/04/13 05:32:06;;;;;;;11.18;5.65;;;;;;;8.68;39.74;94168.50;4931306;28;20035;-74
2022/04/13 05:34:32;;;;;;;8.70;5.95;;;;;;;8.80;40.01;94166.19;4929018;28;20031;-74
2022/04/13 05:36:57;;;;;;;14.75;6.55;;;;;;;8.86;39.56;94171.09;4927553;28;20055;-74
2022/04/13 05:39:22;;;;;;;10.48;5.72;;;;;;;8.85;39.47;94152.84;4927355;28;20039;-74
2022/04/13 05:41:48;;;;;;;7.63;4.90;;;;;;;8.86;40.14;94173.72;4928530;28;20046;-74
2022/04/13 05:44:13;;;;;;;8.70;5.63;;;;;;;9.11;39.10;94171.69;4922953;28;20081;-74
2022/04/13 05:46:38;;;;;;;11.23;5.60;;;;;;;8.97;39.42;94161.06;4929440;28;20027;-75
2022/04/13 05:49:04;;;;;;;12.95;6.68;;;;;;;8.95;39.96;94169.31;4932379;28;20031;-75
2022/04/13 05:51:29;;;;;;;9.27;6.93;;;;;;;9.34;39.17;94155.59;4925815;28;20419;-74
2022/04/13 05:53:55;;;;;;;8.38;5.20;;;;;;;9.57;38.64;94158.34;4929753;28;20576;-74
2022/04/13 05:56:20;;;;;;;13.82;6.88;;;;;;;9.78;38.63;94159.47;4926112;28;20043;-75
2022/04/13 05:58:46;;;;;;;11.95;6.50;;;;;;;9.26;39.07;94180.19;4932382;28;20038;-74
2022/04/13 06:01:14;;;;;;;10.82;5.40;;;;;;;8.94;39.41;94164.31;4929400;29;20459;-74
2022/04/13 06:03:40;;;;;;;9.90;5.68;;;;;;;9.48;39.36;94162.78;4922884;28;20373;-74
2022/04/13 06:06:05;;;;;;;10.05;5.28;;;;;;;9.85;38.20;94173.13;4939279;28;20412;-74
2022/04/13 06:08:30;;;;;;;12.77;6.18;;;;;;;9.95;37.60;94151.63;4929767;28;20505;-75
2022/04/13 06:10:56;;;;;;;10.18;6.68;;;;;;;10.10;37.52;94167.25;4924462;28;20043;-74
2022/04/13 06:13:21;;;;;;;10.45;5.97;;;;;;;9.17;38.89;94165.25;4936710;28;20455;-74
2022/04/13 06:15:46;;;;;;;31.83;6.57;;;;;;;9.29;39.35;94168.97;4927675;28;20078;-74
2022/04/13 06:18:12;;;;;;;9.23;5.95;;;;;;;9.30;38.95;94153.81;4925649;28;20263;-75
2022/04/13 06:20:37;;;;;;;11.13;6.75;;;;;;;9.47;39.62;94153.22;4932184;28;20529;-75
2022/04/13 06:23:04;;;;;;;11.68;6.07;;;;;;;10.09;37.70;94184.25;4926786;28;20552;-75
2022/04/13 06:25:31;;;;;;;8.88;5.82;;;;;;;9.28;38.71;94178.03;4942543;28;20103;-74
2022/04/13 06:27:56;;;;;;;7.90;5.97;;;;;;;9.11;39.15;94177.00;4928128;28;20044;-74
2022/04/13 06:30:21;;;;;;;11.43;6.45;;;;;;;8.43;39.62;94167.84;4917817;28;20067;-74
2022/04/13 06:32:47;;;;;;;9.43;6.03;;;;;;;9.26;39.12;94177.53;4928659;28;20458;-74
2022/04/13 06:35:15;;;;;;;10.00;6.65;;;;;;;9.54;38.89;94177.50;4927041;28;20046;-74
2022/04/13 06:37:43;;;;;;;9.13;5.85;;;;;;;10.16;37.84;94187.31;4923710;28;20031;-75
2022/04/13 06:40:09;;;;;;;11.52;6.85;;;;;;;10.32;36.91;94180.53;4928086;29;20051;-74
2022/04/13 06:42:37;;;;;;;9.85;6.43;;;;;;;10.43;36.58;94189.09;4921205;28;20487;-74
2022/04/13 06:45:04;;;;;;;12.70;5.75;;;;;;;10.20;37.85;94182.97;4927721;28;20039;-75
2022/04/13 06:47:29;;;;;;;12.57;5.78;;;;;;;9.80;37.71;94151.97;4926246;28;20039;-74
2022/04/13 06:49:55;;;;;;;8.52;5.40;;;;;;;10.16;37.75;94182.00;4946486;28;20039;-74
2022/04/13 06:52:21;;;;;;;10.30;5.45;;;;;;;9.84;37.66;94182.97;4918343;29;20030;-74
2022/04/13 06:54:46;;;;;;;10.18;5.68;;;;;;;9.37;38.70;94188.75;4928573;28;20035;-75
2022/04/13 06:57:12;;;;;;;11.82;7.07;;;;;;;9.59;38.24;94188.81;4926810;28;21037;-74
2022/04/13 06:59:38;;;;;;;10.68;6.40;;;;;;;9.45;38.75;94188.81;4928100;28;20050;-74
2022/04/13 07:02:06;;;;;;;12.13;6.20;;;;;;;9.57;38.52;94184.88;4927716;28;20679;-74
2022/04/13 07:04:32;;;;;;;9.77;6.65;;;;;;;9.72;38.30;94187.22;4943471;28;20043;-74
2022/04/13 07:06:58;;;;;;;12.73;7.65;;;;;;;9.99;37.70;94187.16;4924358;28;20046;-74
2022/04/13 07:09:23;;;;;;;9.73;5.93;;;;;;;9.79;38.02;94187.59;4927572;28;20043;-74
2022/04/13 07:11:49;;;;;;;9.65;6.55;;;;;;;10.02;37.01;94191.88;4926932;28;20374;-74
2022/04/13 07:14:14;;;;;;;7.70;5.93;;;;;;;10.60;37.05;94185.78;4929603;28;20530;-74
2022/04/13 07:16:40;;;;;;;11.10;5.82;;;;;;;10.70;36.76;94172.22;4925538;28;20027;-74
2022/04/13 07:19:05;;;;;;;9.88;5.90;;;;;;;10.48;36.35;94194.28;4928930;28;20445;-74
2022/04/13 07:21:30;;;;;;;10.25;6.10;;;;;;;10.65;36.86;94177.66;4917109;28;20027;-75
2022/04/13 07:23:57;;;;;;;12.75;6.35;;;;;;;11.03;36.56;94172.69;4926021;28;20047;-75
2022/04/13 07:26:23;;;;;;;11.48;5.72;;;;;;;10.69;36.00;94183.94;4924274;28;20040;-74
2022/04/13 07:28:48;;;;;;;12.57;6.38;;;;;;;10.95;34.72;94187.53;4919171;28;20449;-75
2022/04/13 07:31:14;;;;;;;11.30;6.53;;;;;;;11.02;34.72;94197.72;4920834;28;20086;-75
2022/04/13 07:33:39;;;;;;;8.60;5.45;;;;;;;11.21;33.75;94189.50;4923926;28;20071;-74
2022/04/13 07:36:06;;;;;;;9.13;5.03;;;;;;;11.22;33.64;94191.88;4922190;28;20071;-74
2022/04/13 07:38:31;;;;;;;13.98;6.05;;;;;;;11.24;33.96;94186.25;4925094;28;20095;-75
2022/04/13 07:41:01;;;;;;;8.13;5.18;;;;;;;11.00;33.36;94190.03;4924780;28;20043;-74
2022/04/13 07:43:26;;;;;;;9.57;5.40;;;;;;;11.23;33.87;94182.00;4928970;28;20336;-74
2022/04/13 07:45:52;;;;;;;15.38;5.22;;;;;;;11.36;33.17;94191.75;4921414;28;20090;-74
2022/04/13 07:48:17;;;;;;;15.68;5.35;;;;;;;11.26;34.24;94189.38;4928626;28;20135;-74
2022/04/13 07:50:44;;;;;;;10.00;5.00;;;;;;;10.51;33.84;94182.28;4923338;28;20170;-74
2022/04/13 07:53:11;;;;;;;8.48;4.50;;;;;;;10.83;32.07;94194.50;4943623;28;20035;-74
2022/04/13 07:55:37;;;;;;;9.18;5.45;;;;;;;10.86;31.62;94189.34;4930324;28;20426;-74
2022/04/13 07:58:02;;;;;;;8.50;3.85;;;;;;;10.70;31.87;94185.53;4926167;28;20125;-75
2022/04/13 08:00:27;;;;;;;9.73;4.40;;;;;;;10.38;33.35;94196.41;4942273;28;20577;-74
2022/04/13 08:02:53;;;;;;;7.90;5.13;;;;;;;10.92;33.48;94193.44;4922340;28;20249;-75
2022/04/13 08:05:18;;;;;;;8.55;5.63;;;;;;;11.01;32.35;94167.66;4922656;28;20051;-74
2022/04/13 08:07:44;;;;;;;13.88;5.57;;;;;;;11.05;33.17;94160.63;4938879;28;20028;-74
2022/04/13 08:10:10;;;;;;;8.23;5.60;;;;;;;10.68;33.01;94190.34;4922714;28;20028;-74
2022/04/13 08:12:35;;;;;;;7.43;4.88;;;;;;;10.61;33.19;94188.09;4919862;28;20039;-74
2022/04/13 08:15:03;;;;;;;7.50;5.20;;;;;;;10.63;32.59;94190.47;4955825;28;20087;-74
2022/04/13 08:17:28;;;;;;;7.88;5.10;;;;;;;10.97;30.82;94173.91;4928690;28;20090;-74
2022/04/13 08:19:54;;;;;;;11.07;4.78;;;;;;;11.30;30.86;94172.47;4927678;28;20031;-75
2022/04/13 08:22:24;;;;;;;8.30;4.78;;;;;;;11.09;30.97;94185.56;4931604;28;20031;-75
2022/04/13 08:24:49;;;;;;;9.45;4.53;;;;;;;10.97;30.23;94195.97;4914996;28;20057;-77
2022/04/13 08:27:15;;;;;;;5.97;4.10;;;;;;;10.98;29.79;94208.22;4932780;28;20039;-76
2022/04/13 08:29:40;;;;;;;43.83;6.45;;;;;;;11.25;30.40;94190.50;4926165;28;20046;-77
2022/04/13 08:32:06;;;;;;;10.50;4.60;;;;;;;11.58;30.56;94189.06;4931611;28;20066;-77
2022/04/13 08:34:32;;;;;;;12.73;4.20;;;;;;;11.34;28.67;94188.63;4924529;28;20031;-72
2022/04/13 08:36:57;;;;;;;6.75;4.00;;;;;;;11.46;27.98;94180.81;4927190;28;20031;-76
2022/04/13 08:39:23;;;;;;;18.63;4.88;;;;;;;11.58;29.06;94189.84;4928268;28;20541;-76
2022/04/13 08:41:50;;;;;;;19.83;6.40;;;;;;;11.49;28.30;94190.88;4926115;28;20373;-76
2022/04/13 08:44:42;;;;;;;6.50;2.65;;;;;;;11.74;26.53;94174.19;4927934;28;20059;-77
2022/04/13 08:47:12;;;;;;;6.95;3.78;;;;;;;11.84;27.18;94165.09;4927584;28;20038;-77
2022/04/13 08:49:43;;;;;;;11.35;5.10;;;;;;;10.71;nan;94123.22;4927392;28;20087;-77
2022/04/13 08:52:09;;;;;;;15.07;7.95;;;;;;;11.34;29.57;94165.47;4927807;28;20073;-77
2022/04/13 08:54:49;;;;;;;9.48;4.53;;;;;;;10.94;29.48;94159.34;4929576;28;20688;-77
2022/04/13 08:57:20;;;;;;;7.43;3.50;;;;;;;10.61;27.22;94166.81;4916359;28;20105;-75
2022/04/13 08:59:52;;;;;;;7.53;4.00;;;;;;;11.14;27.62;94171.34;4921970;28;20039;-76
2022/04/13 09:02:45;;;;;;;8.38;3.35;;;;;;;11.50;27.90;94173.78;4923722;28;20099;-76
2022/04/13 09:05:15;;;;;;;7.15;3.45;;;;;;;11.46;29.21;94167.50;4917885;28;20403;-76
2022/04/13 09:07:41;;;;;;;5.07;3.47;;;;;;;11.73;28.93;94164.63;4922803;28;20019;-76
2022/04/13 09:10:11;;;;;;;5.82;3.53;;;;;;;11.26;27.59;94152.88;4919791;28;20042;-77
2022/04/13 09:12:38;;;;;;;4.53;3.13;;;;;;;11.58;27.47;94157.09;4920645;28;20514;-76
2022/04/13 09:15:05;;;;;;;9.13;3.33;;;;;;;11.97;26.93;94156.19;4916804;28;20081;-76
2022/04/13 09:17:31;;;;;;;4.47;2.83;;;;;;;12.11;25.06;94154.16;4928978;28;20043;-76
2022/04/13 09:19:58;;;;;;;7.03;3.40;;;;;;;11.56;26.35;94154.72;4919381;28;20357;-76
2022/04/13 09:22:24;;;;;;;5.38;3.47;;;;;;;11.59;27.32;94154.09;4925774;28;20031;-76
2022/04/13 09:24:51;;;;;;;22.73;8.70;;;;;;;11.93;26.26;94150.69;4920165;28;20625;-76
2022/04/13 09:27:16;;;;;;;4.57;2.83;;;;;;;12.14;24.72;94150.06;4926295;28;20043;-76
2022/04/13 09:29:42;;;;;;;6.43;3.70;;;;;;;11.84;24.07;94149.91;4937241;28;20050;-77
2022/04/13 09:32:07;;;;;;;5.05;2.70;;;;;;;12.06;24.24;94132.19;4928275;28;20072;-76
2022/04/13 09:34:33;;;;;;;5.20;2.70;;;;;;;12.07;24.86;94131.09;4930786;28;20063;-77
2022/04/13 09:37:00;;;;;;;9.55;4.43;;;;;;;12.27;25.86;94146.47;4916155;28;20577;-76
2022/04/13 09:39:26;;;;;;;4.57;3.17;;;;;;;11.70;25.24;94125.28;4922787;28;20047;-73
2022/04/13 09:41:51;;;;;;;8.05;4.40;;;;;;;11.33;26.02;94139.91;4917439;28;20149;-76
2022/04/13 09:44:20;;;;;;;15.25;5.55;;;;;;;11.75;26.14;94127.00;4925877;28;20453;-75
2022/04/13 09:46:45;;;;;;;3.95;2.60;;;;;;;12.27;23.97;94143.81;4919516;28;20067;-77
2022/04/13 09:49:11;;;;;;;3.67;2.45;;;;;;;12.45;24.11;94142.69;4941779;28;20318;-75
2022/04/13 09:51:41;;;;;;;5.28;2.78;;;;;;;12.54;23.96;94140.78;4923827;28;20651;-75
2022/04/13 09:54:08;;;;;;;4.55;2.95;;;;;;;12.52;23.58;94134.97;4922266;28;20062;-77
2022/04/13 09:56:36;;;;;;;3.63;2.65;;;;;;;12.52;23.43;94134.22;4918529;28;20047;-74
2022/04/13 09:59:01;;;;;;;5.50;3.53;;;;;;;11.71;24.51;94102.09;4914805;28;20066;-75
2022/04/13 10:01:28;;;;;;;3.83;2.70;;;;;;;12.28;25.64;94097.34;4938301;28;20106;-75
2022/04/13 10:03:57;;;;;;;4.40;2.67;;;;;;;12.52;24.27;94113.63;4916361;28;20039;-78
2022/04/13 10:06:28;;;;;;;9.38;2.92;;;;;;;12.46;22.35;94126.38;4937986;28;20039;-75
2022/04/13 10:09:08;;;;;;;3.00;2.60;;;;;;;12.61;22.08;94103.78;4922758;28;20532;-75
2022/04/13 10:11:34;;;;;;;1.60;1.50;;;;;;;12.83;22.69;94121.44;4925923;28;20040;-74
2022/04/13 10:14:05;;;;;;;3.60;1.65;;;;;;;12.83;22.73;94121.44;4929096;28;20518;-75
2022/04/13 10:16:34;;;;;;;5.88;2.75;;;;;;;12.84;22.33;94107.78;4926582;28;20050;-76
2022/04/13 10:19:04;;;;;;;2.78;1.90;;;;;;;12.67;22.49;94065.13;4922211;28;20545;-73
2022/04/13 10:21:41;;;;;;;4.22;2.13;;;;;;;12.82;22.66;94125.19;4915631;28;20138;-76
2022/04/13 10:24:22;;;;;;;5.20;2.33;;;;;;;12.99;23.67;94124.34;4926106;28;20550;-76
2022/04/13 10:27:04;;;;;;;8.85;4.03;;;;;;;12.97;23.25;94115.88;4923907;28;20461;-77
2022/04/13 10:29:32;;;;;;;3.30;2.08;;;;;;;12.91;24.18;94117.19;4924629;28;20392;-74
2022/04/13 10:32:10;;;;;;;4.60;2.60;;;;;;;12.81;23.79;94115.63;4924177;28;20161;-77
2022/04/13 10:34:42;;;;;;;4.78;2.42;;;;;;;12.47;25.80;94111.13;4922980;28;20043;-76
2022/04/13 10:37:10;;;;;;;4.82;1.95;;;;;;;12.65;24.63;94087.91;4924611;28;20039;-77
2022/04/13 10:39:36;;;;;;;3.60;1.92;;;;;;;12.57;24.74;94108.13;4924054;28;20347;-76
2022/04/13 10:42:03;;;;;;;4.20;2.20;;;;;;;12.54;23.67;94107.97;4928071;28;20153;-76
2022/04/13 10:44:33;;;;;;;5.32;2.40;;;;;;;12.41;23.77;94089.19;4921742;28;20321;-77
2022/04/13 10:47:04;;;;;;;4.65;2.40;;;;;;;12.74;24.50;94113.44;4939947;28;20172;-73
2022/04/13 10:49:44;;;;;;;4.90;2.30;;;;;;;13.13;24.68;94106.22;4930797;28;20055;-77
2022/04/13 10:52:15;;;;;;;3.60;2.17;;;;;;;13.30;24.11;94111.47;4916693;28;20086;-77
2022/04/13 10:54:52;;;;;;;3.42;2.05;;;;;;;13.33;24.86;94089.47;4931934;28;20050;-76
2022/04/13 10:57:21;;;;;;;3.60;1.90;;;;;;;13.33;24.09;94086.81;4912882;28;20044;-77
2022/04/13 10:59:59;;;;;;;6.00;2.28;;;;;;;13.19;24.93;94087.03;4928164;28;20205;-77
2022/04/13 11:02:32;;;;;;;6.28;3.38;;;;;;;12.88;24.58;94102.56;4920747;28;20047;-72
2022/04/13 11:04:58;;;;;;;2.95;2.65;;;;;;;12.70;24.92;94101.84;4918934;28;20603;-76
2022/04/13 11:07:25;;;;;;;3.17;1.85;;;;;;;13.00;26.30;94065.31;4925166;28;20035;-75
2022/04/13 11:09:57;;;;;;;3.13;2.20;;;;;;;13.44;24.88;94088.00;4923128;28;20047;-77
2022/04/13 11:12:24;;;;;;;4.97;2.28;;;;;;;13.09;23.72;94089.28;4920535;28;20061;-77
2022/04/13 11:14:54;;;;;;;3.58;1.98;;;;;;;12.88;23.79;94091.88;4922455;28;20111;-77
2022/04/13 11:17:19;;;;;;;6.10;3.33;;;;;;;12.52;25.67;94094.94;4925671;28;20048;-76
2022/04/13 11:19:47;;;;;;;3.45;1.88;;;;;;;12.99;25.82;94082.44;4933212;28;20035;-77
2022/04/13 11:22:15;;;;;;;6.22;2.13;;;;;;;12.46;23.64;94091.69;4922798;28;20035;-76
2022/04/13 11:24:53;;;;;;;4.03;2.05;;;;;;;12.68;25.46;94064.00;4919103;28;20078;-76
2022/04/13 11:27:19;;;;;;;3.13;2.20;;;;;;;13.06;23.57;94061.34;4922032;28;20043;-77
2022/04/13 11:29:56;;;;;;;5.72;2.35;;;;;;;13.27;24.21;94072.84;4923282;28;20158;-75
2022/04/13 11:32:29;;;;;;;3.63;2.53;;;;;;;13.12;23.58;94080.63;4926886;28;20048;-77
2022/04/13 11:34:54;;;;;;;4.10;2.20;;;;;;;13.42;23.76;94079.53;4926346;28;20039;-76